Ansonia, OH

4:30 PM EDT on August 25, 2016 (GMT -0400)
Darke County | | Change Station

Elev 1007 ft 40.20 °N, 84.53 °W | Updated 15 minutes ago

Scattered Clouds
Scattered Clouds
88 °F
Feels Like 96 °F
N
14
Wind Variable Wind from West
Gusts 20 mph

Today
High -- | Low -- °F
--% Chance of Precip.
Yesterday
High -- | Low -- °F
Precip. -- in
Pressure 30.05 in
Visibility 7.0 miles
Clouds Scattered Clouds 4000 ft
Scattered Clouds 4700 ft
Scattered Clouds 5000 ft
Heat Index 96 °F
Dew Point 73 °F
Humidity 62%
Rainfall 0.09 in
Snow Depth Not available.
6:59 AM 8:20 PM
Last Quarter, 42% visible
METAR KVES 252015Z AUTO 26012G17KT 7SM SCT040 SCT047 SCT050 31/23 A3005 RMK AO2
Pressure 30.05 in
Visibility 7.0 miles
Clouds Scattered Clouds 4000 ft
Scattered Clouds 4700 ft
Scattered Clouds 5000 ft
Heat Index 96 °F
Dew Point 73 °F
Humidity 62%
Rainfall 0.09 in
Snow Depth Not available.
6:59 AM 8:20 PM
Last Quarter, 42% visible
METAR KVES 252015Z AUTO 26012G17KT 7SM SCT040 SCT047 SCT050 31/23 A3005 RMK AO2
A tropical disturbance pushing toward the Bahamas, is expected to develop into a tropical depression or storm, and will likely target Florida and the Gulf Coast this weekend into next week.

Right now, the disturbance remains a broad area of low pressure pushing through the Dominican Republic and Haiti, headed toward the southeast Bahamas. Rainfall totals over 3 inches (with locally higher amounts) are expected in HispaƱiola, particularly over elevated terrain.

10-Day Weather Forecast

Almanac

Astronomy

Aug. 25, 2016 Rise Set
Actual Time
Civil Twilight
Nautical Twilight
Astronomical Twilight
Moon
Length of Visible Light
Length of Day
Tomorrow will be .
, % of the Moon is Illuminated

Today's Extremes

State Highs State Lows

Community

WunderPhotos

Upload Photos

1,934,921 photos uploaded!

WunderBlog® & News

Nearby

Air Quality

  Air Quality AQ Index Pollutant
Not available.

Snow Depth

Station Depth Elevation

Earthquake Activity

City Distance Mag. Time & Date
Minimum magnitude displayed is 2.5.

Coastal Water Temperatures

Place Temperature

Stations

Nearby Weather Stations

Station Location Temp. Windchill Dew Point Humidity Wind Precip. Elev Updated Type
                   

Watches & Warnings

There are currently no watches in effect.